sensor_id;sensor_type;location;lat;lon;timestamp;pressure;altitude;pressure_sealevel;temperature;humidity
15314;BME280;7757;52.626;4.746;2023-02-28T00:02:44;103116.00;;;15.54;57.52
15314;BME280;7757;52.626;4.746;2023-02-28T00:05:30;103120.41;;;15.55;58.71
15314;BME280;7757;52.626;4.746;2023-02-28T00:08:16;103112.78;;;15.50;57.68
15314;BME280;7757;52.626;4.746;2023-02-28T00:11:02;103111.78;;;15.51;57.99
15314;BME280;7757;52.626;4.746;2023-02-28T00:13:49;103112.97;;;15.49;57.88
15314;BME280;7757;52.626;4.746;2023-02-28T00:16:34;103112.97;;;15.49;58.58
15314;BME280;7757;52.626;4.746;2023-02-28T00:19:19;103103.63;;;15.43;58.39
15314;BME280;7757;52.626;4.746;2023-02-28T00:22:05;103094.84;;;15.41;58.21
15314;BME280;7757;52.626;4.746;2023-02-28T00:24:50;103103.63;;;15.43;58.42
15314;BME280;7757;52.626;4.746;2023-02-28T00:27:36;103106.88;;;15.47;58.70
15314;BME280;7757;52.626;4.746;2023-02-28T00:30:23;103098.91;;;15.45;58.39
15314;BME280;7757;52.626;4.746;2023-02-28T00:33:09;103101.59;;;15.45;57.91
15314;BME280;7757;52.626;4.746;2023-02-28T00:36:02;103102.47;;;15.46;58.52
15314;BME280;7757;52.626;4.746;2023-02-28T00:38:48;103102.78;;;15.43;58.34
15314;BME280;7757;52.626;4.746;2023-02-28T00:41:34;103099.41;;;15.41;58.05
15314;BME280;7757;52.626;4.746;2023-02-28T00:44:19;103097.72;;;15.40;58.24
15314;BME280;7757;52.626;4.746;2023-02-28T00:47:06;103097.53;;;15.41;58.60
15314;BME280;7757;52.626;4.746;2023-02-28T00:49:51;103107.50;;;15.41;58.34
15314;BME280;7757;52.626;4.746;2023-02-28T00:52:37;103099.41;;;15.41;58.33
15314;BME280;7757;52.626;4.746;2023-02-28T00:55:22;103103.78;;;15.42;58.15
15314;BME280;7757;52.626;4.746;2023-02-28T00:58:08;103103.97;;;15.40;57.90
15314;BME280;7757;52.626;4.746;2023-02-28T01:00:53;103102.94;;;15.41;58.44
15314;BME280;7757;52.626;4.746;2023-02-28T01:03:40;103101.25;;;15.40;58.43
15314;BME280;7757;52.626;4.746;2023-02-28T01:06:26;103104.09;;;15.39;58.67
15314;BME280;7757;52.626;4.746;2023-02-28T01:09:12;103092.44;;;15.30;58.26
15314;BME280;7757;52.626;4.746;2023-02-28T01:11:57;103110.66;;;15.36;58.90
15314;BME280;7757;52.626;4.746;2023-02-28T01:14:42;103108.97;;;15.35;57.87
15314;BME280;7757;52.626;4.746;2023-02-28T01:17:27;103103.56;;;15.35;57.84
15314;BME280;7757;52.626;4.746;2023-02-28T01:20:14;103092.97;;;15.34;58.30
15314;BME280;7757;52.626;4.746;2023-02-28T01:23:00;103093.47;;;15.29;58.14
15314;BME280;7757;52.626;4.746;2023-02-28T01:25:45;103086.38;;;15.28;58.41
15314;BME280;7757;52.626;4.746;2023-02-28T01:28:31;103085.03;;;15.32;58.41
15314;BME280;7757;52.626;4.746;2023-02-28T01:31:17;103084.53;;;15.29;58.36
15314;BME280;7757;52.626;4.746;2023-02-28T01:34:03;103093.47;;;15.29;57.92
15314;BME280;7757;52.626;4.746;2023-02-28T01:36:50;103090.59;;;15.31;58.20
15314;BME280;7757;52.626;4.746;2023-02-28T01:39:35;103082.69;;;15.29;58.37
15314;BME280;7757;52.626;4.746;2023-02-28T01:42:20;103081.97;;;15.27;58.85
15314;BME280;7757;52.626;4.746;2023-02-28T01:45:18;103075.75;;;15.27;58.94
15314;BME280;7757;52.626;4.746;2023-02-28T01:48:07;103075.59;;;15.28;58.33
15314;BME280;7757;52.626;4.746;2023-02-28T01:50:55;103076.59;;;15.27;58.12
15314;BME280;7757;52.626;4.746;2023-02-28T01:53:50;103072.38;;;15.25;58.89
15314;BME280;7757;52.626;4.746;2023-02-28T01:56:36;103073.22;;;15.25;58.93
15314;BME280;7757;52.626;4.746;2023-02-28T01:59:24;103073.22;;;15.25;58.76
15314;BME280;7757;52.626;4.746;2023-02-28T02:02:17;103073.38;;;15.24;58.75
15314;BME280;7757;52.626;4.746;2023-02-28T02:05:06;103075.38;;;15.22;58.39
15314;BME280;7757;52.626;4.746;2023-02-28T02:07:55;103069.16;;;15.21;57.79
15314;BME280;7757;52.626;4.746;2023-02-28T02:10:44;103056.00;;;15.18;59.17
15314;BME280;7757;52.626;4.746;2023-02-28T02:13:39;103057.50;;;15.21;59.28
15314;BME280;7757;52.626;4.746;2023-02-28T02:16:36;103041.84;;;15.16;58.78
15314;BME280;7757;52.626;4.746;2023-02-28T02:19:42;103046.25;;;15.17;58.66
15314;BME280;7757;52.626;4.746;2023-02-28T02:22:59;103048.75;;;15.19;59.27
15314;BME280;7757;52.626;4.746;2023-02-28T02:25:53;103046.06;;;15.19;58.72
15314;BME280;7757;52.626;4.746;2023-02-28T02:28:57;103039.81;;;15.18;59.26
15314;BME280;7757;52.626;4.746;2023-02-28T02:31:59;103034.75;;;15.15;58.91
15314;BME280;7757;52.626;4.746;2023-02-28T02:35:01;103031.06;;;15.16;58.09
15314;BME280;7757;52.626;4.746;2023-02-28T02:37:54;103023.63;;;15.10;58.80
15314;BME280;7757;52.626;4.746;2023-02-28T02:40:46;103028.38;;;15.16;59.22
15314;BME280;7757;52.626;4.746;2023-02-28T02:43:36;103018.56;;;15.07;58.61
15314;BME280;7757;52.626;4.746;2023-02-28T02:46:29;103025.13;;;15.13;59.07
15314;BME280;7757;52.626;4.746;2023-02-28T02:49:19;103021.78;;;15.11;58.17
15314;BME280;7757;52.626;4.746;2023-02-28T02:52:08;103024.28;;;15.12;58.16
15314;BME280;7757;52.626;4.746;2023-02-28T02:54:57;103028.00;;;15.11;59.27
15314;BME280;7757;52.626;4.746;2023-02-28T02:57:45;103022.41;;;15.04;58.45
15314;BME280;7757;52.626;4.746;2023-02-28T03:00:35;103024.63;;;15.09;58.73
15314;BME280;7757;52.626;4.746;2023-02-28T03:03:22;103014.97;;;14.98;58.44
15314;BME280;7757;52.626;4.746;2023-02-28T03:06:14;103024.59;;;15.01;59.26
15314;BME280;7757;52.626;4.746;2023-02-28T03:09:02;103039.97;;;15.08;58.61
15314;BME280;7757;52.626;4.746;2023-02-28T03:11:48;103030.50;;;15.04;58.19
15314;BME280;7757;52.626;4.746;2023-02-28T03:14:43;103032.88;;;15.07;58.35
15314;BME280;7757;52.626;4.746;2023-02-28T03:17:44;103033.03;;;15.06;58.90
15314;BME280;7757;52.626;4.746;2023-02-28T03:20:39;103034.91;;;15.05;58.68
15314;BME280;7757;52.626;4.746;2023-02-28T03:23:30;103033.19;;;15.04;58.71
15314;BME280;7757;52.626;4.746;2023-02-28T03:26:23;103038.72;;;15.03;59.24
15314;BME280;7757;52.626;4.746;2023-02-28T03:29:15;103036.75;;;15.05;58.89
15314;BME280;7757;52.626;4.746;2023-02-28T03:32:04;103031.50;;;15.03;58.33
15314;BME280;7757;52.626;4.746;2023-02-28T03:34:56;103028.81;;;15.03;58.45
15314;BME280;7757;52.626;4.746;2023-02-28T03:37:43;103039.59;;;15.03;59.03
15314;BME280;7757;52.626;4.746;2023-02-28T03:40:32;103037.91;;;15.02;59.14
15314;BME280;7757;52.626;4.746;2023-02-28T03:43:22;103033.53;;;15.01;58.52
15314;BME280;7757;52.626;4.746;2023-02-28T03:46:12;103032.84;;;14.99;58.48
15314;BME280;7757;52.626;4.746;2023-02-28T03:49:05;103031.81;;;15.00;59.18
15314;BME280;7757;52.626;4.746;2023-02-28T03:51:54;103029.97;;;15.01;58.72
15314;BME280;7757;52.626;4.746;2023-02-28T03:54:45;103029.31;;;14.99;58.67
15314;BME280;7757;52.626;4.746;2023-02-28T03:57:36;103029.44;;;14.97;58.39
15314;BME280;7757;52.626;4.746;2023-02-28T04:00:28;103021.53;;;14.96;58.51
15314;BME280;7757;52.626;4.746;2023-02-28T04:03:15;103018.84;;;14.96;59.50
15314;BME280;7757;52.626;4.746;2023-02-28T04:06:01;103022.00;;;14.91;58.90
15314;BME280;7757;52.626;4.746;2023-02-28T04:08:47;103023.38;;;14.95;59.55
15314;BME280;7757;52.626;4.746;2023-02-28T04:11:35;103018.00;;;14.95;59.13
15314;BME280;7757;52.626;4.746;2023-02-28T04:14:21;103020.84;;;14.94;58.43
15314;BME280;7757;52.626;4.746;2023-02-28T04:17:08;103019.84;;;14.95;58.82
15314;BME280;7757;52.626;4.746;2023-02-28T04:19:56;103025.22;;;14.95;58.94
15314;BME280;7757;52.626;4.746;2023-02-28T04:22:41;103020.16;;;14.92;59.30
15314;BME280;7757;52.626;4.746;2023-02-28T04:25:27;103026.22;;;14.94;58.37
15314;BME280;7757;52.626;4.746;2023-02-28T04:28:12;103030.78;;;14.93;58.54
15314;BME280;7757;52.626;4.746;2023-02-28T04:31:00;103023.72;;;14.92;58.80
15314;BME280;7757;52.626;4.746;2023-02-28T04:33:47;103025.56;;;14.92;58.54
15314;BME280;7757;52.626;4.746;2023-02-28T04:36:32;103023.84;;;14.91;58.24
15314;BME280;7757;52.626;4.746;2023-02-28T04:39:18;103016.13;;;14.88;58.51
15314;BME280;7757;52.626;4.746;2023-02-28T04:42:04;103026.53;;;14.91;59.21
15314;BME280;7757;52.626;4.746;2023-02-28T04:44:49;103024.88;;;14.90;59.06
15314;BME280;7757;52.626;4.746;2023-02-28T04:47:35;103019.50;;;14.90;59.74
15314;BME280;7757;52.626;4.746;2023-02-28T04:50:22;103025.88;;;14.89;59.17
15314;BME280;7757;52.626;4.746;2023-02-28T04:53:08;103018.81;;;14.88;59.18
15314;BME280;7757;52.626;4.746;2023-02-28T04:55:53;103021.50;;;14.88;58.47
15314;BME280;7757;52.626;4.746;2023-02-28T04:58:39;103014.88;;;14.82;59.16
15314;BME280;7757;52.626;4.746;2023-02-28T05:01:26;103013.03;;;14.83;58.99
15314;BME280;7757;52.626;4.746;2023-02-28T05:04:12;103020.81;;;14.86;58.58
15314;BME280;7757;52.626;4.746;2023-02-28T05:06:59;103019.28;;;14.83;59.72
15314;BME280;7757;52.626;4.746;2023-02-28T05:09:44;103015.91;;;14.81;59.78
15314;BME280;7757;52.626;4.746;2023-02-28T05:12:30;103017.44;;;14.84;59.72
15314;BME280;7757;52.626;4.746;2023-02-28T05:15:16;103010.53;;;14.81;59.39
15314;BME280;7757;52.626;4.746;2023-02-28T05:18:02;102998.38;;;14.77;58.88
15314;BME280;7757;52.626;4.746;2023-02-28T05:20:48;103006.97;;;14.81;58.65
15314;BME280;7757;52.626;4.746;2023-02-28T05:23:34;103021.97;;;14.83;59.40
15314;BME280;7757;52.626;4.746;2023-02-28T05:26:20;103018.59;;;14.81;59.24
15314;BME280;7757;52.626;4.746;2023-02-28T05:29:06;103013.38;;;14.80;58.85
15314;BME280;7757;52.626;4.746;2023-02-28T05:31:51;103004.28;;;14.81;59.05
15314;BME280;7757;52.626;4.746;2023-02-28T05:34:38;103011.69;;;14.79;58.81
15314;BME280;7757;52.626;4.746;2023-02-28T05:37:23;103016.06;;;14.80;59.83
15314;BME280;7757;52.626;4.746;2023-02-28T05:40:12;103011.69;;;14.79;59.64
15314;BME280;7757;52.626;4.746;2023-02-28T05:42:57;103003.94;;;14.76;58.64
15314;BME280;7757;52.626;4.746;2023-02-28T05:45:42;103016.22;;;14.78;58.65
15314;BME280;7757;52.626;4.746;2023-02-28T05:48:28;103011.84;;;14.77;58.85
15314;BME280;7757;52.626;4.746;2023-02-28T05:51:13;103014.53;;;14.77;59.56
15314;BME280;7757;52.626;4.746;2023-02-28T05:53:59;103013.69;;;14.77;59.21
15314;BME280;7757;52.626;4.746;2023-02-28T05:56:46;103007.94;;;14.72;59.10
15314;BME280;7757;52.626;4.746;2023-02-28T05:59:31;103014.72;;;14.76;59.83
15314;BME280;7757;52.626;4.746;2023-02-28T06:02:17;103004.94;;;14.75;58.57
15314;BME280;7757;52.626;4.746;2023-02-28T06:05:02;103005.78;;;14.75;59.53
15314;BME280;7757;52.626;4.746;2023-02-28T06:07:48;103006.78;;;14.74;59.88
15314;BME280;7757;52.626;4.746;2023-02-28T06:10:33;103004.94;;;14.75;58.84
15314;BME280;7757;52.626;4.746;2023-02-28T06:13:20;103009.63;;;14.73;59.58
15314;BME280;7757;52.626;4.746;2023-02-28T06:16:07;103008.94;;;14.71;59.42
15314;BME280;7757;52.626;4.746;2023-02-28T06:18:53;102998.47;;;14.68;59.30
15314;BME280;7757;52.626;4.746;2023-02-28T06:21:40;103006.94;;;14.73;59.08
15314;BME280;7757;52.626;4.746;2023-02-28T06:24:25;103015.22;;;14.79;59.21
15314;BME280;7757;52.626;4.746;2023-02-28T06:27:12;103007.97;;;14.80;59.37
15314;BME280;7757;52.626;4.746;2023-02-28T06:29:59;103005.13;;;14.81;58.79
15314;BME280;7757;52.626;4.746;2023-02-28T06:32:44;103006.97;;;14.81;59.44
15314;BME280;7757;52.626;4.746;2023-02-28T06:35:30;103010.84;;;14.78;58.97
15314;BME280;7757;52.626;4.746;2023-02-28T06:38:15;103017.91;;;14.79;59.20
15314;BME280;7757;52.626;4.746;2023-02-28T06:41:02;103018.59;;;14.81;59.07
15314;BME280;7757;52.626;4.746;2023-02-28T06:43:48;103019.47;;;14.82;58.66
15314;BME280;7757;52.626;4.746;2023-02-28T06:46:38;103019.63;;;14.88;59.15
15314;BME280;7757;52.626;4.746;2023-02-28T06:49:23;103016.25;;;14.86;59.32
15314;BME280;7757;52.626;4.746;2023-02-28T06:52:09;103011.72;;;14.87;59.11
15314;BME280;7757;52.626;4.746;2023-02-28T06:54:54;103004.97;;;14.83;59.49
15314;BME280;7757;52.626;4.746;2023-02-28T06:57:43;103014.88;;;14.82;59.41
15314;BME280;7757;52.626;4.746;2023-02-28T07:00:29;103021.84;;;14.85;58.86
15314;BME280;7757;52.626;4.746;2023-02-28T07:03:16;103008.34;;;14.85;59.32
15314;BME280;7757;52.626;4.746;2023-02-28T07:06:02;103019.28;;;14.83;59.49
15314;BME280;7757;52.626;4.746;2023-02-28T07:08:48;103028.22;;;14.84;59.78
15314;BME280;7757;52.626;4.746;2023-02-28T07:11:34;103023.63;;;15.10;59.99
15314;BME280;7757;52.626;4.746;2023-02-28T07:14:19;103030.88;;;15.18;60.50
15314;BME280;7757;52.626;4.746;2023-02-28T07:17:06;103023.41;;;15.45;60.80
15314;BME280;7757;52.626;4.746;2023-02-28T07:19:53;103040.22;;;15.97;59.49
15314;BME280;7757;52.626;4.746;2023-02-28T07:22:39;103041.91;;;16.39;58.94
15314;BME280;7757;52.626;4.746;2023-02-28T07:25:27;103041.75;;;16.64;57.63
15314;BME280;7757;52.626;4.746;2023-02-28T07:28:13;103044.88;;;16.92;57.02
15314;BME280;7757;52.626;4.746;2023-02-28T07:31:03;103050.50;;;17.21;56.44
15314;BME280;7757;52.626;4.746;2023-02-28T07:33:48;103042.81;;;17.41;55.96
15314;BME280;7757;52.626;4.746;2023-02-28T07:36:35;103036.31;;;17.58;55.50
15314;BME280;7757;52.626;4.746;2023-02-28T07:39:20;103040.97;;;17.72;55.49
15314;BME280;7757;52.626;4.746;2023-02-28T07:42:06;103054.69;;;17.94;54.50
15314;BME280;7757;52.626;4.746;2023-02-28T07:44:54;103061.66;;;18.11;54.28
15314;BME280;7757;52.626;4.746;2023-02-28T07:47:40;103058.00;;;18.26;53.66
15314;BME280;7757;52.626;4.746;2023-02-28T07:50:26;103064.78;;;18.45;53.45
15314;BME280;7757;52.626;4.746;2023-02-28T07:53:16;103065.59;;;18.54;53.06
15314;BME280;7757;52.626;4.746;2023-02-28T07:56:02;103065.00;;;18.58;53.23
15314;BME280;7757;52.626;4.746;2023-02-28T07:58:47;103065.28;;;18.49;52.73
15314;BME280;7757;52.626;4.746;2023-02-28T08:01:33;103054.59;;;18.47;52.54
15314;BME280;7757;52.626;4.746;2023-02-28T08:04:19;103067.34;;;18.61;52.43
15314;BME280;7757;52.626;4.746;2023-02-28T08:07:04;103062.69;;;18.84;52.52
15314;BME280;7757;52.626;4.746;2023-02-28T08:09:51;103064.13;;;18.95;52.84
15314;BME280;7757;52.626;4.746;2023-02-28T08:12:36;103075.34;;;19.07;52.82
15314;BME280;7757;52.626;4.746;2023-02-28T08:15:22;103070.78;;;19.07;52.85
15314;BME280;7757;52.626;4.746;2023-02-28T08:18:07;103073.38;;;19.01;52.15
15314;BME280;7757;52.626;4.746;2023-02-28T08:20:52;103082.06;;;18.96;52.24
15314;BME280;7757;52.626;4.746;2023-02-28T08:23:38;103087.22;;;18.91;51.90
15314;BME280;7757;52.626;4.746;2023-02-28T08:26:26;103077.97;;;18.85;51.80
15314;BME280;7757;52.626;4.746;2023-02-28T08:29:11;103076.09;;;18.86;51.92
15314;BME280;7757;52.626;4.746;2023-02-28T08:31:56;103086.25;;;18.84;51.98
15314;BME280;7757;52.626;4.746;2023-02-28T08:34:42;103088.53;;;18.80;51.74
15314;BME280;7757;52.626;4.746;2023-02-28T08:37:28;103089.19;;;18.82;52.01
15314;BME280;7757;52.626;4.746;2023-02-28T08:40:13;103088.31;;;18.82;51.58
15314;BME280;7757;52.626;4.746;2023-02-28T08:43:03;103086.63;;;18.81;51.59
15314;BME280;7757;52.626;4.746;2023-02-28T08:45:51;103095.63;;;18.81;51.80
15314;BME280;7757;52.626;4.746;2023-02-28T08:48:36;103091.41;;;18.79;51.70
15314;BME280;7757;52.626;4.746;2023-02-28T08:51:22;103094.75;;;18.81;51.42
15314;BME280;7757;52.626;4.746;2023-02-28T08:54:10;103088.97;;;18.84;51.50
15314;BME280;7757;52.626;4.746;2023-02-28T08:56:58;103093.75;;;18.82;51.52
15314;BME280;7757;52.626;4.746;2023-02-28T08:59:45;103092.72;;;18.83;51.62
15314;BME280;7757;52.626;4.746;2023-02-28T09:02:30;103096.47;;;18.82;51.25
15314;BME280;7757;52.626;4.746;2023-02-28T09:05:16;103105.16;;;18.77;51.27
15314;BME280;7757;52.626;4.746;2023-02-28T09:08:01;103100.38;;;18.79;51.17
15314;BME280;7757;52.626;4.746;2023-02-28T09:10:47;103102.91;;;18.81;51.39
15314;BME280;7757;52.626;4.746;2023-02-28T09:13:33;103111.97;;;18.73;51.56
15314;BME280;7757;52.626;4.746;2023-02-28T09:16:20;103109.75;;;18.77;51.35
15314;BME280;7757;52.626;4.746;2023-02-28T09:19:05;103113.31;;;18.77;52.07
15314;BME280;7757;52.626;4.746;2023-02-28T09:21:50;103119.75;;;18.76;51.70
15314;BME280;7757;52.626;4.746;2023-02-28T09:24:36;103115.31;;;18.75;51.26
15314;BME280;7757;52.626;4.746;2023-02-28T09:27:22;103116.25;;;18.68;51.53
15314;BME280;7757;52.626;4.746;2023-02-28T09:30:09;103112.91;;;18.66;51.56
15314;BME280;7757;52.626;4.746;2023-02-28T09:32:56;103116.63;;;18.65;51.51
15314;BME280;7757;52.626;4.746;2023-02-28T09:35:41;103121.47;;;18.69;51.73
15314;BME280;7757;52.626;4.746;2023-02-28T09:38:27;103114.69;;;18.73;51.41
15314;BME280;7757;52.626;4.746;2023-02-28T09:41:14;103121.06;;;18.80;51.39
15314;BME280;7757;52.626;4.746;2023-02-28T09:44:02;103111.22;;;18.79;51.21
15314;BME280;7757;52.626;4.746;2023-02-28T09:46:52;103117.78;;;18.85;51.45
15314;BME280;7757;52.626;4.746;2023-02-28T09:49:41;103115.06;;;18.85;51.75
15314;BME280;7757;52.626;4.746;2023-02-28T09:52:29;103123.13;;;18.93;51.75
15314;BME280;7757;52.626;4.746;2023-02-28T09:55:20;103119.19;;;18.95;51.74
15314;BME280;7757;52.626;4.746;2023-02-28T09:58:14;103113.88;;;19.02;51.61
15314;BME280;7757;52.626;4.746;2023-02-28T10:01:05;103115.00;;;19.08;51.29
15314;BME280;7757;52.626;4.746;2023-02-28T10:03:56;103116.59;;;19.17;51.03
15314;BME280;7757;52.626;4.746;2023-02-28T10:06:46;103123.22;;;19.14;51.46
15314;BME280;7757;52.626;4.746;2023-02-28T10:09:34;103117.34;;;19.25;50.89
15314;BME280;7757;52.626;4.746;2023-02-28T10:12:21;103119.41;;;19.23;51.04
15314;BME280;7757;52.626;4.746;2023-02-28T10:15:13;103126.59;;;19.16;51.30
15314;BME280;7757;52.626;4.746;2023-02-28T10:18:03;103112.59;;;19.13;51.68
15314;BME280;7757;52.626;4.746;2023-02-28T10:20:50;103114.25;;;19.14;51.07
15314;BME280;7757;52.626;4.746;2023-02-28T10:23:38;103122.31;;;19.22;51.56
15314;BME280;7757;52.626;4.746;2023-02-28T10:26:26;103120.25;;;19.24;51.33
15314;BME280;7757;52.626;4.746;2023-02-28T10:29:14;103126.22;;;19.19;51.09
15314;BME280;7757;52.626;4.746;2023-02-28T10:32:01;103110.03;;;19.11;51.40
15314;BME280;7757;52.626;4.746;2023-02-28T10:34:52;103128.50;;;19.16;51.40
15314;BME280;7757;52.626;4.746;2023-02-28T10:37:42;103130.81;;;19.33;51.28
15314;BME280;7757;52.626;4.746;2023-02-28T10:40:32;103126.53;;;19.54;51.81
15314;BME280;7757;52.626;4.746;2023-02-28T10:43:21;103126.69;;;19.67;51.54
15314;BME280;7757;52.626;4.746;2023-02-28T10:46:13;103118.88;;;19.78;51.23
15314;BME280;7757;52.626;4.746;2023-02-28T10:49:14;103110.44;;;19.88;51.55
15314;BME280;7757;52.626;4.746;2023-02-28T10:52:01;103109.75;;;20.00;51.21
15314;BME280;7757;52.626;4.746;2023-02-28T10:54:47;103108.34;;;20.04;51.44
15314;BME280;7757;52.626;4.746;2023-02-28T10:57:34;103107.91;;;20.08;51.46
15314;BME280;7757;52.626;4.746;2023-02-28T11:00:21;103118.03;;;20.14;51.46
15314;BME280;7757;52.626;4.746;2023-02-28T11:03:24;103109.56;;;20.23;51.28
15314;BME280;7757;52.626;4.746;2023-02-28T11:06:20;103110.03;;;20.27;51.12
15314;BME280;7757;52.626;4.746;2023-02-28T11:09:20;103107.31;;;20.27;51.42
15314;BME280;7757;52.626;4.746;2023-02-28T11:12:17;103107.59;;;19.96;50.55
15314;BME280;7757;52.626;4.746;2023-02-28T11:15:21;103109.84;;;19.71;50.39
15314;BME280;7757;52.626;4.746;2023-02-28T11:18:22;103114.81;;;19.68;49.98
15314;BME280;7757;52.626;4.746;2023-02-28T11:21:10;103106.00;;;19.66;50.12
15314;BME280;7757;52.626;4.746;2023-02-28T11:24:02;103111.63;;;19.64;50.17
15314;BME280;7757;52.626;4.746;2023-02-28T11:26:49;103110.13;;;19.62;50.27
15314;BME280;7757;52.626;4.746;2023-02-28T11:29:34;103109.66;;;19.58;50.25
15314;BME280;7757;52.626;4.746;2023-02-28T11:32:27;103109.78;;;19.50;50.15
15314;BME280;7757;52.626;4.746;2023-02-28T11:35:18;103110.25;;;19.39;50.35
15314;BME280;7757;52.626;4.746;2023-02-28T11:38:09;103109.13;;;19.33;50.65
15314;BME280;7757;52.626;4.746;2023-02-28T11:41:18;103107.19;;;19.42;51.02
15314;BME280;7757;52.626;4.746;2023-02-28T11:44:25;103106.78;;;19.60;51.23
15314;BME280;7757;52.626;4.746;2023-02-28T11:47:17;103097.41;;;19.62;51.53
15314;BME280;7757;52.626;4.746;2023-02-28T11:50:18;103100.19;;;19.69;51.43
15314;BME280;7757;52.626;4.746;2023-02-28T11:53:17;103097.91;;;19.72;52.01
15314;BME280;7757;52.626;4.746;2023-02-28T11:56:09;103095.88;;;19.74;51.90
15314;BME280;7757;52.626;4.746;2023-02-28T11:59:05;103082.47;;;19.73;51.67
15314;BME280;7757;52.626;4.746;2023-02-28T12:02:06;103093.69;;;19.84;52.29
15314;BME280;7757;52.626;4.746;2023-02-28T12:05:13;103094.53;;;19.85;52.07
15314;BME280;7757;52.626;4.746;2023-02-28T12:08:13;103092.47;;;19.87;52.10
15314;BME280;7757;52.626;4.746;2023-02-28T12:11:11;103088.72;;;19.88;51.97
15314;BME280;7757;52.626;4.746;2023-02-28T12:17:22;103086.31;;;19.99;52.08
15314;BME280;7757;52.626;4.746;2023-02-28T12:20:22;103084.66;;;19.98;52.14
15314;BME280;7757;52.626;4.746;2023-02-28T12:23:23;103075.66;;;19.98;52.48
15314;BME280;7757;52.626;4.746;2023-02-28T12:26:16;103069.63;;;20.02;51.99
15314;BME280;7757;52.626;4.746;2023-02-28T12:29:13;103072.56;;;20.01;52.19
15314;BME280;7757;52.626;4.746;2023-02-28T12:32:04;103076.13;;;20.01;51.93
15314;BME280;7757;52.626;4.746;2023-02-28T12:34:53;103075.31;;;20.08;52.26
15314;BME280;7757;52.626;4.746;2023-02-28T12:37:45;103070.09;;;20.06;52.10
15314;BME280;7757;52.626;4.746;2023-02-28T12:40:42;103053.34;;;20.02;52.12
15314;BME280;7757;52.626;4.746;2023-02-28T12:43:32;103050.47;;;20.11;52.21
15314;BME280;7757;52.626;4.746;2023-02-28T12:46:23;103053.66;;;20.14;51.65
15314;BME280;7757;52.626;4.746;2023-02-28T12:49:13;103058.31;;;20.20;51.72
15314;BME280;7757;52.626;4.746;2023-02-28T12:52:01;103054.34;;;20.23;51.82
15314;BME280;7757;52.626;4.746;2023-02-28T12:54:52;103058.19;;;20.28;51.50
15314;BME280;7757;52.626;4.746;2023-02-28T12:57:45;103055.47;;;20.28;51.61
15314;BME280;7757;52.626;4.746;2023-02-28T13:00:35;103052.31;;;20.25;51.90
15314;BME280;7757;52.626;4.746;2023-02-28T13:03:33;103053.19;;;20.25;51.72
15314;BME280;7757;52.626;4.746;2023-02-28T13:06:36;103044.72;;;20.20;51.92
15314;BME280;7757;52.626;4.746;2023-02-28T13:09:27;103052.59;;;20.30;52.19
15314;BME280;7757;52.626;4.746;2023-02-28T13:12:16;103040.88;;;20.29;52.05
15314;BME280;7757;52.626;4.746;2023-02-28T13:15:06;103051.81;;;20.36;51.61
15314;BME280;7757;52.626;4.746;2023-02-28T13:17:59;103051.81;;;20.36;51.76
15314;BME280;7757;52.626;4.746;2023-02-28T13:20:47;103044.66;;;20.35;51.82
15314;BME280;7757;52.626;4.746;2023-02-28T13:23:57;103044.09;;;20.39;51.28
15314;BME280;7757;52.626;4.746;2023-02-28T13:27:19;103051.59;;;20.37;51.53
15314;BME280;7757;52.626;4.746;2023-02-28T13:33:33;103046.16;;;20.16;50.61
15314;BME280;7757;52.626;4.746;2023-02-28T13:36:25;103050.38;;;20.19;50.60
15314;BME280;7757;52.626;4.746;2023-02-28T13:39:45;103040.97;;;20.21;50.65
15314;BME280;7757;52.626;4.746;2023-02-28T13:42:33;103049.41;;;20.26;50.43
15314;BME280;7757;52.626;4.746;2023-02-28T13:45:23;103038.53;;;20.26;50.63
15314;BME280;7757;52.626;4.746;2023-02-28T13:48:17;103041.25;;;20.26;50.74
15314;BME280;7757;52.626;4.746;2023-02-28T13:51:35;103043.78;;;20.28;50.50
15314;BME280;7757;52.626;4.746;2023-02-28T13:54:34;103037.50;;;20.27;50.57
15314;BME280;7757;52.626;4.746;2023-02-28T13:57:33;103034.31;;;20.24;51.07
15314;BME280;7757;52.626;4.746;2023-02-28T14:00:30;103031.97;;;20.21;50.62
15314;BME280;7757;52.626;4.746;2023-02-28T14:03:29;103020.66;;;20.17;50.89
15314;BME280;7757;52.626;4.746;2023-02-28T14:06:23;103012.50;;;20.17;50.55
15314;BME280;7757;52.626;4.746;2023-02-28T14:09:19;103023.94;;;20.27;50.95
15314;BME280;7757;52.626;4.746;2023-02-28T14:15:44;103013.59;;;20.23;51.20
15314;BME280;7757;52.626;4.746;2023-02-28T14:18:32;103022.47;;;20.31;50.70
15314;BME280;7757;52.626;4.746;2023-02-28T14:21:23;103021.00;;;20.29;50.62
15314;BME280;7757;52.626;4.746;2023-02-28T14:24:49;103017.84;;;20.25;51.36
15314;BME280;7757;52.626;4.746;2023-02-28T14:27:44;103016.13;;;20.24;51.09
15314;BME280;7757;52.626;4.746;2023-02-28T14:30:48;103018.59;;;20.19;50.89
15314;BME280;7757;52.626;4.746;2023-02-28T14:33:50;103023.81;;;20.21;51.19
15314;BME280;7757;52.626;4.746;2023-02-28T14:36:44;103012.31;;;20.19;50.72
15314;BME280;7757;52.626;4.746;2023-02-28T14:39:31;103002.31;;;20.19;50.74
15314;BME280;7757;52.626;4.746;2023-02-28T14:42:34;103006.97;;;20.25;50.92
15314;BME280;7757;52.626;4.746;2023-02-28T14:45:22;103008.66;;;20.26;50.91
15314;BME280;7757;52.626;4.746;2023-02-28T14:48:09;103014.44;;;20.23;51.06
15314;BME280;7757;52.626;4.746;2023-02-28T14:50:57;103009.00;;;20.23;51.37
15314;BME280;7757;52.626;4.746;2023-02-28T14:53:43;103009.84;;;20.24;50.81
15314;BME280;7757;52.626;4.746;2023-02-28T14:56:34;103006.09;;;20.25;51.18
15314;BME280;7757;52.626;4.746;2023-02-28T14:59:27;103008.16;;;20.23;50.97
15314;BME280;7757;52.626;4.746;2023-02-28T15:02:22;103009.41;;;20.20;51.20
15314;BME280;7757;52.626;4.746;2023-02-28T15:05:27;103000.25;;;20.00;50.70
15314;BME280;7757;52.626;4.746;2023-02-28T15:08:15;103000.44;;;19.98;50.66
15314;BME280;7757;52.626;4.746;2023-02-28T15:11:02;103010.78;;;20.31;51.12